Terminal Aerodrome Forecast
Issued by NWS Mt. Holly, NJ

Current Version | Previous Version | Text Only | Print | Product List | Glossary On
Versions: 1 2 3 4 5 6 7 8 9 10 11 12 13 14 15 16 17 18 19 20 21 22 23 24 25 26 27 28
000
FTUS41 KPHI 231842 AAA
TAFPHL
TAF AMD
KPHL 231842Z 2319/2424 23012G20KT P6SM BKN035
     FM232100 24012KT P6SM VCSH BKN050
      TEMPO 2322/2402 4SM TSRA BKN030CB
     FM240400 22009KT P6SM OVC110 WS020/23040KT
     FM240800 21009KT 4SM +TSRA OVC030CB
     FM241100 30008KT P6SM SCT050=

USA.gov is the U.S. government's official web portal to all federal, state and local government web resources and services.